sensor_id;sensor_type;location;lat;lon;timestamp;temperature;humidity
17891;DHT22;9071;48.220;14.480;2023-04-05T00:03:06;-0.90;99.90
17891;DHT22;9071;48.220;14.480;2023-04-05T00:08:09;-0.90;99.90
17891;DHT22;9071;48.220;14.480;2023-04-05T00:13:14;-0.90;99.90
17891;DHT22;9071;48.220;14.480;2023-04-05T00:18:16;-0.40;99.90
17891;DHT22;9071;48.220;14.480;2023-04-05T00:23:23;-0.40;99.90
17891;DHT22;9071;48.220;14.480;2023-04-05T00:28:27;-0.40;99.90
17891;DHT22;9071;48.220;14.480;2023-04-05T00:33:29;-0.40;99.90
17891;DHT22;9071;48.220;14.480;2023-04-05T00:38:33;-0.60;99.90
17891;DHT22;9071;48.220;14.480;2023-04-05T00:43:36;-0.60;99.90
17891;DHT22;9071;48.220;14.480;2023-04-05T00:48:38;-0.80;99.90
17891;DHT22;9071;48.220;14.480;2023-04-05T00:53:41;-1.00;99.90
17891;DHT22;9071;48.220;14.480;2023-04-05T00:58:46;-1.30;99.90
17891;DHT22;9071;48.220;14.480;2023-04-05T01:03:51;-1.40;99.90
17891;DHT22;9071;48.220;14.480;2023-04-05T01:08:59;-1.50;99.90
17891;DHT22;9071;48.220;14.480;2023-04-05T01:14:03;-1.60;99.90
17891;DHT22;9071;48.220;14.480;2023-04-05T01:19:05;-1.70;99.90
17891;DHT22;9071;48.220;14.480;2023-04-05T01:24:18;-1.80;99.90
17891;DHT22;9071;48.220;14.480;2023-04-05T01:29:49;-2.00;99.90
17891;DHT22;9071;48.220;14.480;2023-04-05T01:34:55;-2.10;99.90
17891;DHT22;9071;48.220;14.480;2023-04-05T01:40:00;-2.20;99.90
17891;DHT22;9071;48.220;14.480;2023-04-05T01:45:08;-2.30;99.90
17891;DHT22;9071;48.220;14.480;2023-04-05T01:50:10;-2.30;99.90
17891;DHT22;9071;48.220;14.480;2023-04-05T01:55:12;-2.40;99.90
17891;DHT22;9071;48.220;14.480;2023-04-05T02:00:16;-2.40;99.90
17891;DHT22;9071;48.220;14.480;2023-04-05T02:05:18;-2.40;99.90
17891;DHT22;9071;48.220;14.480;2023-04-05T02:10:21;-2.40;99.90
17891;DHT22;9071;48.220;14.480;2023-04-05T02:15:25;-2.50;99.90
17891;DHT22;9071;48.220;14.480;2023-04-05T02:20:27;-2.60;99.90
17891;DHT22;9071;48.220;14.480;2023-04-05T02:25:29;-2.60;99.90
17891;DHT22;9071;48.220;14.480;2023-04-05T02:30:33;-2.60;99.90
17891;DHT22;9071;48.220;14.480;2023-04-05T02:35:35;-2.50;99.90
17891;DHT22;9071;48.220;14.480;2023-04-05T02:40:37;-2.60;99.90
17891;DHT22;9071;48.220;14.480;2023-04-05T02:45:42;-2.70;99.90
17891;DHT22;9071;48.220;14.480;2023-04-05T02:50:46;-2.80;99.90
17891;DHT22;9071;48.220;14.480;2023-04-05T02:55:52;-2.80;99.90
17891;DHT22;9071;48.220;14.480;2023-04-05T03:00:56;-2.90;99.90
17891;DHT22;9071;48.220;14.480;2023-04-05T03:06:03;-2.80;99.90
17891;DHT22;9071;48.220;14.480;2023-04-05T03:11:10;-2.80;99.90
17891;DHT22;9071;48.220;14.480;2023-04-05T03:16:13;-2.90;99.90
17891;DHT22;9071;48.220;14.480;2023-04-05T03:21:15;-2.90;99.90
17891;DHT22;9071;48.220;14.480;2023-04-05T03:26:17;-3.00;99.90
17891;DHT22;9071;48.220;14.480;2023-04-05T03:31:21;-3.10;99.90
17891;DHT22;9071;48.220;14.480;2023-04-05T03:36:23;-3.00;99.90
17891;DHT22;9071;48.220;14.480;2023-04-05T03:41:28;-3.00;99.90
17891;DHT22;9071;48.220;14.480;2023-04-05T03:46:32;-3.10;99.90
17891;DHT22;9071;48.220;14.480;2023-04-05T03:51:34;-3.20;99.90
17891;DHT22;9071;48.220;14.480;2023-04-05T03:56:36;-3.30;99.90
17891;DHT22;9071;48.220;14.480;2023-04-05T04:01:40;-3.30;99.90
17891;DHT22;9071;48.220;14.480;2023-04-05T04:06:42;-3.30;99.90
17891;DHT22;9071;48.220;14.480;2023-04-05T04:11:44;-3.40;99.90
17891;DHT22;9071;48.220;14.480;2023-04-05T04:16:47;-3.50;99.90
17891;DHT22;9071;48.220;14.480;2023-04-05T04:21:49;-3.60;99.90
17891;DHT22;9071;48.220;14.480;2023-04-05T04:26:52;-3.60;99.90
17891;DHT22;9071;48.220;14.480;2023-04-05T04:31:55;-3.60;99.90
17891;DHT22;9071;48.220;14.480;2023-04-05T04:36:57;-3.60;99.90
17891;DHT22;9071;48.220;14.480;2023-04-05T04:42:01;-3.60;99.90
17891;DHT22;9071;48.220;14.480;2023-04-05T04:47:05;-3.50;99.90
17891;DHT22;9071;48.220;14.480;2023-04-05T04:52:12;-3.40;99.90
17891;DHT22;9071;48.220;14.480;2023-04-05T04:57:14;-3.30;99.90
17891;DHT22;9071;48.220;14.480;2023-04-05T05:02:22;-3.20;99.90
17891;DHT22;9071;48.220;14.480;2023-04-05T05:07:24;-3.10;99.90
17891;DHT22;9071;48.220;14.480;2023-04-05T05:12:26;-2.90;99.90
17891;DHT22;9071;48.220;14.480;2023-04-05T05:17:31;-2.60;99.90
17891;DHT22;9071;48.220;14.480;2023-04-05T05:22:34;-2.30;99.90
17891;DHT22;9071;48.220;14.480;2023-04-05T05:27:36;-2.10;99.90
17891;DHT22;9071;48.220;14.480;2023-04-05T05:32:40;-1.80;99.90
17891;DHT22;9071;48.220;14.480;2023-04-05T05:37:42;-1.50;99.90
17891;DHT22;9071;48.220;14.480;2023-04-05T05:42:44;-1.20;99.90
17891;DHT22;9071;48.220;14.480;2023-04-05T05:47:48;0.40;99.90
17891;DHT22;9071;48.220;14.480;2023-04-05T05:52:50;4.00;99.90
17891;DHT22;9071;48.220;14.480;2023-04-05T05:57:52;6.40;99.90
17891;DHT22;9071;48.220;14.480;2023-04-05T06:02:56;7.90;99.90
17891;DHT22;9071;48.220;14.480;2023-04-05T06:07:58;9.00;99.90
17891;DHT22;9071;48.220;14.480;2023-04-05T06:13:00;9.90;99.90
17891;DHT22;9071;48.220;14.480;2023-04-05T06:18:04;10.80;99.90
17891;DHT22;9071;48.220;14.480;2023-04-05T06:23:06;11.70;99.90
17891;DHT22;9071;48.220;14.480;2023-04-05T06:28:08;12.30;99.90
17891;DHT22;9071;48.220;14.480;2023-04-05T06:33:12;12.80;99.90
17891;DHT22;9071;48.220;14.480;2023-04-05T06:38:14;12.90;99.90
17891;DHT22;9071;48.220;14.480;2023-04-05T06:43:16;12.60;99.90
17891;DHT22;9071;48.220;14.480;2023-04-05T06:48:20;12.80;99.90
17891;DHT22;9071;48.220;14.480;2023-04-05T06:53:22;13.70;99.90
17891;DHT22;9071;48.220;14.480;2023-04-05T06:58:26;13.80;99.90
17891;DHT22;9071;48.220;14.480;2023-04-05T07:03:29;13.90;99.50
17891;DHT22;9071;48.220;14.480;2023-04-05T07:08:32;13.10;99.90
17891;DHT22;9071;48.220;14.480;2023-04-05T07:13:34;14.10;99.20
17891;DHT22;9071;48.220;14.480;2023-04-05T07:18:38;14.00;99.80
17891;DHT22;9071;48.220;14.480;2023-04-05T07:23:40;13.80;97.50
17891;DHT22;9071;48.220;14.480;2023-04-05T07:28:42;13.30;97.90
17891;DHT22;9071;48.220;14.480;2023-04-05T07:33:45;12.70;97.50
17891;DHT22;9071;48.220;14.480;2023-04-05T07:38:47;14.30;97.70
17891;DHT22;9071;48.220;14.480;2023-04-05T07:43:49;14.30;95.70
17891;DHT22;9071;48.220;14.480;2023-04-05T07:48:53;14.70;93.20
17891;DHT22;9071;48.220;14.480;2023-04-05T07:53:55;13.80;94.70
17891;DHT22;9071;48.220;14.480;2023-04-05T07:58:58;13.00;97.20
17891;DHT22;9071;48.220;14.480;2023-04-05T08:04:02;14.30;93.20
17891;DHT22;9071;48.220;14.480;2023-04-05T08:09:04;15.00;96.30
17891;DHT22;9071;48.220;14.480;2023-04-05T08:14:08;15.10;94.10
17891;DHT22;9071;48.220;14.480;2023-04-05T08:19:12;15.20;93.20
17891;DHT22;9071;48.220;14.480;2023-04-05T08:24:14;14.80;91.90
17891;DHT22;9071;48.220;14.480;2023-04-05T08:29:16;14.40;91.00
17891;DHT22;9071;48.220;14.480;2023-04-05T08:34:19;12.20;92.00
17891;DHT22;9071;48.220;14.480;2023-04-05T08:39:21;12.20;92.70
17891;DHT22;9071;48.220;14.480;2023-04-05T08:44:24;11.40;93.90
17891;DHT22;9071;48.220;14.480;2023-04-05T08:49:28;10.20;94.80
17891;DHT22;9071;48.220;14.480;2023-04-05T08:54:30;8.40;98.30
17891;DHT22;9071;48.220;14.480;2023-04-05T08:59:33;7.10;99.70
17891;DHT22;9071;48.220;14.480;2023-04-05T09:04:42;6.60;99.90
17891;DHT22;9071;48.220;14.480;2023-04-05T09:09:47;7.00;99.90
17891;DHT22;9071;48.220;14.480;2023-04-05T09:14:51;7.30;99.90
17891;DHT22;9071;48.220;14.480;2023-04-05T09:19:54;6.50;99.90
17891;DHT22;9071;48.220;14.480;2023-04-05T09:24:56;6.80;99.90
17891;DHT22;9071;48.220;14.480;2023-04-05T09:29:58;7.20;99.90
17891;DHT22;9071;48.220;14.480;2023-04-05T09:35:02;7.40;99.90
17891;DHT22;9071;48.220;14.480;2023-04-05T09:40:06;7.90;99.90
17891;DHT22;9071;48.220;14.480;2023-04-05T09:45:10;7.70;99.90
17891;DHT22;9071;48.220;14.480;2023-04-05T09:50:19;8.10;99.90
17891;DHT22;9071;48.220;14.480;2023-04-05T09:55:27;7.80;99.90
17891;DHT22;9071;48.220;14.480;2023-04-05T10:00:30;7.20;99.90
17891;DHT22;9071;48.220;14.480;2023-04-05T10:05:34;7.70;99.90
17891;DHT22;9071;48.220;14.480;2023-04-05T10:10:37;7.80;99.80
17891;DHT22;9071;48.220;14.480;2023-04-05T10:15:46;8.00;99.90
17891;DHT22;9071;48.220;14.480;2023-04-05T10:20:53;7.50;99.90
17891;DHT22;9071;48.220;14.480;2023-04-05T10:26:03;7.30;99.90
17891;DHT22;9071;48.220;14.480;2023-04-05T10:31:11;8.00;99.90
17891;DHT22;9071;48.220;14.480;2023-04-05T10:36:21;8.10;99.60
17891;DHT22;9071;48.220;14.480;2023-04-05T10:41:25;7.10;99.90
17891;DHT22;9071;48.220;14.480;2023-04-05T10:46:28;7.10;99.90
17891;DHT22;9071;48.220;14.480;2023-04-05T10:51:32;7.00;99.90
17891;DHT22;9071;48.220;14.480;2023-04-05T10:56:36;7.10;99.90
17891;DHT22;9071;48.220;14.480;2023-04-05T11:01:40;7.20;99.90
17891;DHT22;9071;48.220;14.480;2023-04-05T11:06:44;6.40;99.90
17891;DHT22;9071;48.220;14.480;2023-04-05T11:11:50;6.10;99.90
17891;DHT22;9071;48.220;14.480;2023-04-05T11:16:53;6.90;99.90
17891;DHT22;9071;48.220;14.480;2023-04-05T11:22:01;7.40;99.90
17891;DHT22;9071;48.220;14.480;2023-04-05T11:27:08;8.20;99.90
17891;DHT22;9071;48.220;14.480;2023-04-05T11:32:11;7.60;99.90
17891;DHT22;9071;48.220;14.480;2023-04-05T11:37:15;8.00;99.70
17891;DHT22;9071;48.220;14.480;2023-04-05T11:42:18;8.50;99.90
17891;DHT22;9071;48.220;14.480;2023-04-05T11:47:20;8.20;99.10
17891;DHT22;9071;48.220;14.480;2023-04-05T11:52:23;8.40;99.90
17891;DHT22;9071;48.220;14.480;2023-04-05T11:57:25;7.00;99.90
17891;DHT22;9071;48.220;14.480;2023-04-05T12:02:33;6.20;99.90
17891;DHT22;9071;48.220;14.480;2023-04-05T12:07:37;5.60;99.90
17891;DHT22;9071;48.220;14.480;2023-04-05T12:12:40;6.00;99.90
17891;DHT22;9071;48.220;14.480;2023-04-05T12:17:45;6.40;99.90
17891;DHT22;9071;48.220;14.480;2023-04-05T12:22:51;7.20;99.90
17891;DHT22;9071;48.220;14.480;2023-04-05T12:27:54;7.80;99.90
17891;DHT22;9071;48.220;14.480;2023-04-05T12:32:56;8.40;99.90
17891;DHT22;9071;48.220;14.480;2023-04-05T12:38:00;8.40;99.90
17891;DHT22;9071;48.220;14.480;2023-04-05T12:43:03;8.80;99.90
17891;DHT22;9071;48.220;14.480;2023-04-05T12:48:07;8.90;99.60
17891;DHT22;9071;48.220;14.480;2023-04-05T12:53:17;8.50;99.20
17891;DHT22;9071;48.220;14.480;2023-04-05T12:58:21;8.20;99.10
17891;DHT22;9071;48.220;14.480;2023-04-05T13:03:25;7.70;99.90
17891;DHT22;9071;48.220;14.480;2023-04-05T13:08:29;7.80;99.90
17891;DHT22;9071;48.220;14.480;2023-04-05T13:13:31;8.50;99.90
17891;DHT22;9071;48.220;14.480;2023-04-05T13:18:34;8.70;99.90
17891;DHT22;9071;48.220;14.480;2023-04-05T13:23:38;9.00;99.90
17891;DHT22;9071;48.220;14.480;2023-04-05T13:28:40;9.20;99.00
17891;DHT22;9071;48.220;14.480;2023-04-05T13:33:43;8.60;98.60
17891;DHT22;9071;48.220;14.480;2023-04-05T13:38:46;7.90;99.10
17891;DHT22;9071;48.220;14.480;2023-04-05T13:43:48;8.30;99.50
17891;DHT22;9071;48.220;14.480;2023-04-05T13:48:51;8.30;99.00
17891;DHT22;9071;48.220;14.480;2023-04-05T13:53:54;8.50;99.30
17891;DHT22;9071;48.220;14.480;2023-04-05T13:58:56;8.80;99.90
17891;DHT22;9071;48.220;14.480;2023-04-05T14:03:58;9.10;99.90
17891;DHT22;9071;48.220;14.480;2023-04-05T14:09:02;9.20;99.30
17891;DHT22;9071;48.220;14.480;2023-04-05T14:14:05;9.00;98.40
17891;DHT22;9071;48.220;14.480;2023-04-05T14:19:07;8.60;99.90
17891;DHT22;9071;48.220;14.480;2023-04-05T14:24:11;8.80;99.90
17891;DHT22;9071;48.220;14.480;2023-04-05T14:29:14;9.10;99.90
17891;DHT22;9071;48.220;14.480;2023-04-05T14:34:16;9.00;99.90
17891;DHT22;9071;48.220;14.480;2023-04-05T14:39:20;8.80;99.70
17891;DHT22;9071;48.220;14.480;2023-04-05T14:44:22;9.00;99.90
17891;DHT22;9071;48.220;14.480;2023-04-05T14:49:26;9.00;99.60
17891;DHT22;9071;48.220;14.480;2023-04-05T14:54:30;8.80;99.50
17891;DHT22;9071;48.220;14.480;2023-04-05T14:59:32;8.80;99.90
17891;DHT22;9071;48.220;14.480;2023-04-05T15:04:34;8.80;99.90
17891;DHT22;9071;48.220;14.480;2023-04-05T15:09:38;8.70;99.90
17891;DHT22;9071;48.220;14.480;2023-04-05T15:14:40;8.60;99.70
17891;DHT22;9071;48.220;14.480;2023-04-05T15:19:42;8.60;99.90
17891;DHT22;9071;48.220;14.480;2023-04-05T15:24:46;8.60;99.90
17891;DHT22;9071;48.220;14.480;2023-04-05T15:29:48;8.40;99.90
17891;DHT22;9071;48.220;14.480;2023-04-05T15:34:50;8.50;99.90
17891;DHT22;9071;48.220;14.480;2023-04-05T15:39:54;8.60;99.90
17891;DHT22;9071;48.220;14.480;2023-04-05T15:44:56;8.60;99.90
17891;DHT22;9071;48.220;14.480;2023-04-05T15:49:58;8.50;99.90
17891;DHT22;9071;48.220;14.480;2023-04-05T15:55:02;8.50;99.90
17891;DHT22;9071;48.220;14.480;2023-04-05T16:00:05;8.20;99.90
17891;DHT22;9071;48.220;14.480;2023-04-05T16:05:08;8.20;99.90
17891;DHT22;9071;48.220;14.480;2023-04-05T16:10:12;8.10;99.90
17891;DHT22;9071;48.220;14.480;2023-04-05T16:15:14;8.00;99.90
17891;DHT22;9071;48.220;14.480;2023-04-05T16:20:16;7.80;99.90
17891;DHT22;9071;48.220;14.480;2023-04-05T16:25:20;7.70;99.90
17891;DHT22;9071;48.220;14.480;2023-04-05T16:30:22;7.60;99.90
17891;DHT22;9071;48.220;14.480;2023-04-05T16:35:24;7.50;99.90
17891;DHT22;9071;48.220;14.480;2023-04-05T16:40:28;7.40;99.90
17891;DHT22;9071;48.220;14.480;2023-04-05T16:45:30;7.10;99.90
17891;DHT22;9071;48.220;14.480;2023-04-05T16:50:35;6.90;99.90
17891;DHT22;9071;48.220;14.480;2023-04-05T16:55:39;6.80;99.90
17891;DHT22;9071;48.220;14.480;2023-04-05T17:00:41;6.70;99.90
17891;DHT22;9071;48.220;14.480;2023-04-05T17:05:44;6.70;99.90
17891;DHT22;9071;48.220;14.480;2023-04-05T17:10:47;6.50;99.90
17891;DHT22;9071;48.220;14.480;2023-04-05T17:15:50;6.40;99.90
17891;DHT22;9071;48.220;14.480;2023-04-05T17:20:52;6.10;99.90
17891;DHT22;9071;48.220;14.480;2023-04-05T17:25:56;5.90;99.90
17891;DHT22;9071;48.220;14.480;2023-04-05T17:30:58;5.70;99.90
17891;DHT22;9071;48.220;14.480;2023-04-05T17:36:00;5.50;99.90
17891;DHT22;9071;48.220;14.480;2023-04-05T17:41:05;5.20;99.90
17891;DHT22;9071;48.220;14.480;2023-04-05T17:46:07;5.00;99.90
17891;DHT22;9071;48.220;14.480;2023-04-05T17:51:13;4.60;99.90
17891;DHT22;9071;48.220;14.480;2023-04-05T17:56:17;4.40;99.90
17891;DHT22;9071;48.220;14.480;2023-04-05T18:01:19;4.40;99.90
17891;DHT22;9071;48.220;14.480;2023-04-05T18:06:21;4.10;99.90
17891;DHT22;9071;48.220;14.480;2023-04-05T18:11:25;4.00;99.90
17891;DHT22;9071;48.220;14.480;2023-04-05T18:16:27;3.70;99.90
17891;DHT22;9071;48.220;14.480;2023-04-05T18:21:30;3.50;99.90
17891;DHT22;9071;48.220;14.480;2023-04-05T18:26:34;3.30;99.90
17891;DHT22;9071;48.220;14.480;2023-04-05T18:31:37;3.10;99.90
17891;DHT22;9071;48.220;14.480;2023-04-05T18:36:39;3.00;99.90
17891;DHT22;9071;48.220;14.480;2023-04-05T18:41:43;3.00;99.90
17891;DHT22;9071;48.220;14.480;2023-04-05T18:46:45;2.80;99.90
17891;DHT22;9071;48.220;14.480;2023-04-05T18:51:48;2.70;99.90
17891;DHT22;9071;48.220;14.480;2023-04-05T18:56:52;2.80;99.90
17891;DHT22;9071;48.220;14.480;2023-04-05T19:01:54;2.80;99.90
17891;DHT22;9071;48.220;14.480;2023-04-05T19:06:56;3.00;99.90
17891;DHT22;9071;48.220;14.480;2023-04-05T19:12:00;3.40;99.90
17891;DHT22;9071;48.220;14.480;2023-04-05T19:17:02;3.60;99.90
17891;DHT22;9071;48.220;14.480;2023-04-05T19:22:04;3.80;99.90
17891;DHT22;9071;48.220;14.480;2023-04-05T19:27:10;3.70;99.90
17891;DHT22;9071;48.220;14.480;2023-04-05T19:32:12;3.50;99.90
17891;DHT22;9071;48.220;14.480;2023-04-05T19:37:15;3.40;99.90
17891;DHT22;9071;48.220;14.480;2023-04-05T19:42:19;3.10;99.90
17891;DHT22;9071;48.220;14.480;2023-04-05T19:47:22;3.20;99.90
17891;DHT22;9071;48.220;14.480;2023-04-05T19:52:34;3.10;99.90
17891;DHT22;9071;48.220;14.480;2023-04-05T19:57:38;2.70;99.90
17891;DHT22;9071;48.220;14.480;2023-04-05T20:02:41;2.50;99.90
17891;DHT22;9071;48.220;14.480;2023-04-05T20:07:43;2.20;99.90
17891;DHT22;9071;48.220;14.480;2023-04-05T20:12:48;2.00;99.90
17891;DHT22;9071;48.220;14.480;2023-04-05T20:17:51;1.80;99.90
17891;DHT22;9071;48.220;14.480;2023-04-05T20:22:54;1.50;99.90
17891;DHT22;9071;48.220;14.480;2023-04-05T20:27:58;1.20;99.90
17891;DHT22;9071;48.220;14.480;2023-04-05T20:33:00;1.00;99.90
17891;DHT22;9071;48.220;14.480;2023-04-05T20:38:02;0.90;99.90
17891;DHT22;9071;48.220;14.480;2023-04-05T20:43:06;0.80;99.90
17891;DHT22;9071;48.220;14.480;2023-04-05T20:48:08;1.50;99.90
17891;DHT22;9071;48.220;14.480;2023-04-05T20:53:10;1.80;99.90
17891;DHT22;9071;48.220;14.480;2023-04-05T20:58:14;1.80;99.90
17891;DHT22;9071;48.220;14.480;2023-04-05T21:03:17;1.90;99.90
17891;DHT22;9071;48.220;14.480;2023-04-05T21:08:19;1.90;99.90
17891;DHT22;9071;48.220;14.480;2023-04-05T21:13:22;1.50;99.90
17891;DHT22;9071;48.220;14.480;2023-04-05T21:18:25;1.50;99.90
17891;DHT22;9071;48.220;14.480;2023-04-05T21:23:28;1.40;99.90
17891;DHT22;9071;48.220;14.480;2023-04-05T21:28:31;1.50;99.90
17891;DHT22;9071;48.220;14.480;2023-04-05T21:33:33;1.20;99.90
17891;DHT22;9071;48.220;14.480;2023-04-05T21:38:36;0.80;99.90
17891;DHT22;9071;48.220;14.480;2023-04-05T21:43:39;0.40;99.90
17891;DHT22;9071;48.220;14.480;2023-04-05T21:48:42;0.20;99.90
17891;DHT22;9071;48.220;14.480;2023-04-05T21:53:44;0.00;99.90
17891;DHT22;9071;48.220;14.480;2023-04-05T21:58:48;-0.20;99.90
17891;DHT22;9071;48.220;14.480;2023-04-05T22:03:50;-0.40;99.90
17891;DHT22;9071;48.220;14.480;2023-04-05T22:08:52;-0.50;99.90
17891;DHT22;9071;48.220;14.480;2023-04-05T22:13:56;-0.60;99.90
17891;DHT22;9071;48.220;14.480;2023-04-05T22:18:58;-0.60;99.90
17891;DHT22;9071;48.220;14.480;2023-04-05T22:24:00;-0.70;99.90
17891;DHT22;9071;48.220;14.480;2023-04-05T22:29:04;-0.70;99.90
17891;DHT22;9071;48.220;14.480;2023-04-05T22:34:06;-0.80;99.90
17891;DHT22;9071;48.220;14.480;2023-04-05T22:39:09;-0.90;99.90
17891;DHT22;9071;48.220;14.480;2023-04-05T22:44:12;-1.00;99.90
17891;DHT22;9071;48.220;14.480;2023-04-05T22:49:15;-1.00;99.90
17891;DHT22;9071;48.220;14.480;2023-04-05T22:54:17;-1.10;99.90
17891;DHT22;9071;48.220;14.480;2023-04-05T22:59:20;-1.10;99.90
17891;DHT22;9071;48.220;14.480;2023-04-05T23:04:23;-1.20;99.90
17891;DHT22;9071;48.220;14.480;2023-04-05T23:09:26;-1.20;99.90
17891;DHT22;9071;48.220;14.480;2023-04-05T23:14:30;-1.20;99.90
17891;DHT22;9071;48.220;14.480;2023-04-05T23:19:32;-1.20;99.90
17891;DHT22;9071;48.220;14.480;2023-04-05T23:24:34;-1.20;99.90
17891;DHT22;9071;48.220;14.480;2023-04-05T23:29:38;-1.20;99.90
17891;DHT22;9071;48.220;14.480;2023-04-05T23:34:40;-1.20;99.90
17891;DHT22;9071;48.220;14.480;2023-04-05T23:39:42;-1.00;99.90
17891;DHT22;9071;48.220;14.480;2023-04-05T23:44:46;-0.80;99.90
17891;DHT22;9071;48.220;14.480;2023-04-05T23:49:48;-1.00;99.90
17891;DHT22;9071;48.220;14.480;2023-04-05T23:54:50;-1.10;99.90
17891;DHT22;9071;48.220;14.480;2023-04-05T23:59:54;-1.20;99.90
